sensor_id;sensor_type;location;lat;lon;timestamp;P1;durP1;ratioP1;P2;durP2;ratioP2
21432;SDS011;18592;49.708;10.900;2023-08-31T00:00:23;1.33;;;1.00;;
21432;SDS011;18592;49.708;10.900;2023-08-31T00:02:23;1.10;;;1.00;;
21432;SDS011;18592;49.708;10.900;2023-08-31T00:04:24;1.40;;;0.90;;
21432;SDS011;18592;49.708;10.900;2023-08-31T00:06:25;0.80;;;0.80;;
21432;SDS011;18592;49.708;10.900;2023-08-31T00:08:34;1.20;;;1.10;;
21432;SDS011;18592;49.708;10.900;2023-08-31T00:10:35;1.63;;;1.10;;
21432;SDS011;18592;49.708;10.900;2023-08-31T00:12:35;1.45;;;0.80;;
21432;SDS011;18592;49.708;10.900;2023-08-31T00:14:36;1.80;;;0.70;;
21432;SDS011;18592;49.708;10.900;2023-08-31T00:16:37;2.10;;;0.80;;
21432;SDS011;18592;49.708;10.900;2023-08-31T00:18:37;1.73;;;0.90;;
21432;SDS011;18592;49.708;10.900;2023-08-31T00:20:42;1.67;;;1.00;;
21432;SDS011;18592;49.708;10.900;2023-08-31T00:22:45;1.30;;;0.85;;
21432;SDS011;18592;49.708;10.900;2023-08-31T00:24:46;0.80;;;0.80;;
21432;SDS011;18592;49.708;10.900;2023-08-31T00:26:53;1.38;;;1.20;;
21432;SDS011;18592;49.708;10.900;2023-08-31T00:28:54;1.00;;;0.85;;
21432;SDS011;18592;49.708;10.900;2023-08-31T00:30:54;2.08;;;1.00;;
21432;SDS011;18592;49.708;10.900;2023-08-31T00:32:55;1.02;;;0.90;;
21432;SDS011;18592;49.708;10.900;2023-08-31T00:34:55;1.33;;;1.00;;
21432;SDS011;18592;49.708;10.900;2023-08-31T00:36:57;1.30;;;1.10;;
21432;SDS011;18592;49.708;10.900;2023-08-31T00:38:58;1.02;;;0.90;;
21432;SDS011;18592;49.708;10.900;2023-08-31T00:40:59;0.80;;;0.70;;
21432;SDS011;18592;49.708;10.900;2023-08-31T00:43:00;1.00;;;0.90;;
21432;SDS011;18592;49.708;10.900;2023-08-31T00:45:01;1.15;;;0.73;;
21432;SDS011;18592;49.708;10.900;2023-08-31T00:47:06;1.85;;;1.00;;
21432;SDS011;18592;49.708;10.900;2023-08-31T00:49:07;1.13;;;1.00;;
21432;SDS011;18592;49.708;10.900;2023-08-31T00:51:13;1.08;;;0.73;;
21432;SDS011;18592;49.708;10.900;2023-08-31T00:53:16;0.88;;;0.85;;
21432;SDS011;18592;49.708;10.900;2023-08-31T00:55:17;1.40;;;0.95;;
21432;SDS011;18592;49.708;10.900;2023-08-31T00:57:19;1.80;;;1.08;;
21432;SDS011;18592;49.708;10.900;2023-08-31T00:59:20;2.15;;;1.05;;
21432;SDS011;18592;49.708;10.900;2023-08-31T01:05:57;1.80;;;0.90;;
21432;SDS011;18592;49.708;10.900;2023-08-31T01:08:12;1.67;;;1.00;;
21432;SDS011;18592;49.708;10.900;2023-08-31T01:12:52;1.17;;;0.90;;
21432;SDS011;18592;49.708;10.900;2023-08-31T01:15:04;1.80;;;1.00;;
21432;SDS011;18592;49.708;10.900;2023-08-31T01:17:12;1.10;;;0.90;;
21432;SDS011;18592;49.708;10.900;2023-08-31T01:19:47;0.80;;;0.80;;
21432;SDS011;18592;49.708;10.900;2023-08-31T01:21:53;1.55;;;0.80;;
21432;SDS011;18592;49.708;10.900;2023-08-31T01:23:58;1.20;;;0.90;;
21432;SDS011;18592;49.708;10.900;2023-08-31T01:26:00;1.25;;;0.80;;
21432;SDS011;18592;49.708;10.900;2023-08-31T01:28:03;1.83;;;1.05;;
21432;SDS011;18592;49.708;10.900;2023-08-31T01:30:09;1.50;;;1.00;;
21432;SDS011;18592;49.708;10.900;2023-08-31T01:32:10;1.83;;;1.08;;
21432;SDS011;18592;49.708;10.900;2023-08-31T01:34:12;2.47;;;1.13;;
21432;SDS011;18592;49.708;10.900;2023-08-31T01:38:29;1.60;;;0.95;;
21432;SDS011;18592;49.708;10.900;2023-08-31T01:40:48;1.45;;;1.02;;
21432;SDS011;18592;49.708;10.900;2023-08-31T01:42:54;1.17;;;1.08;;
21432;SDS011;18592;49.708;10.900;2023-08-31T01:44:55;2.28;;;1.13;;
21432;SDS011;18592;49.708;10.900;2023-08-31T01:47:03;1.08;;;0.98;;
21432;SDS011;18592;49.708;10.900;2023-08-31T01:49:10;1.40;;;1.00;;
21432;SDS011;18592;49.708;10.900;2023-08-31T01:51:10;1.10;;;1.00;;
21432;SDS011;18592;49.708;10.900;2023-08-31T01:53:10;0.82;;;0.77;;
21432;SDS011;18592;49.708;10.900;2023-08-31T01:55:21;1.25;;;1.00;;
21432;SDS011;18592;49.708;10.900;2023-08-31T01:57:22;1.48;;;1.00;;
21432;SDS011;18592;49.708;10.900;2023-08-31T01:59:58;1.17;;;1.05;;
21432;SDS011;18592;49.708;10.900;2023-08-31T02:01:59;1.33;;;0.90;;
21432;SDS011;18592;49.708;10.900;2023-08-31T02:03:59;1.65;;;1.10;;
21432;SDS011;18592;49.708;10.900;2023-08-31T02:06:03;1.20;;;1.05;;
21432;SDS011;18592;49.708;10.900;2023-08-31T02:08:26;1.10;;;0.80;;
21432;SDS011;18592;49.708;10.900;2023-08-31T02:10:29;2.90;;;1.20;;
21432;SDS011;18592;49.708;10.900;2023-08-31T02:12:30;3.65;;;1.40;;
21432;SDS011;18592;49.708;10.900;2023-08-31T02:14:30;1.52;;;1.15;;
21432;SDS011;18592;49.708;10.900;2023-08-31T02:16:31;1.25;;;1.08;;
21432;SDS011;18592;49.708;10.900;2023-08-31T02:18:31;1.20;;;0.98;;
21432;SDS011;18592;49.708;10.900;2023-08-31T02:20:33;0.82;;;0.80;;
21432;SDS011;18592;49.708;10.900;2023-08-31T02:22:34;1.23;;;1.00;;
21432;SDS011;18592;49.708;10.900;2023-08-31T02:24:40;1.65;;;0.90;;
21432;SDS011;18592;49.708;10.900;2023-08-31T02:26:40;1.05;;;0.90;;
21432;SDS011;18592;49.708;10.900;2023-08-31T02:28:40;0.90;;;0.80;;
21432;SDS011;18592;49.708;10.900;2023-08-31T02:30:43;1.08;;;0.90;;
21432;SDS011;18592;49.708;10.900;2023-08-31T02:32:45;2.22;;;1.25;;
21432;SDS011;18592;49.708;10.900;2023-08-31T02:45:27;1.33;;;1.13;;
21432;SDS011;18592;49.708;10.900;2023-08-31T02:47:43;1.65;;;1.00;;
21432;SDS011;18592;49.708;10.900;2023-08-31T02:49:44;1.33;;;1.23;;
21432;SDS011;18592;49.708;10.900;2023-08-31T02:51:53;2.17;;;1.38;;
21432;SDS011;18592;49.708;10.900;2023-08-31T02:53:54;1.15;;;1.05;;
21432;SDS011;18592;49.708;10.900;2023-08-31T02:55:54;1.52;;;1.20;;
21432;SDS011;18592;49.708;10.900;2023-08-31T02:57:55;1.60;;;1.40;;
21432;SDS011;18592;49.708;10.900;2023-08-31T02:59:55;2.00;;;1.25;;
21432;SDS011;18592;49.708;10.900;2023-08-31T03:01:55;2.53;;;1.27;;
21432;SDS011;18592;49.708;10.900;2023-08-31T03:03:56;1.40;;;1.13;;
21432;SDS011;18592;49.708;10.900;2023-08-31T03:05:57;1.73;;;1.42;;
21432;SDS011;18592;49.708;10.900;2023-08-31T03:07:57;1.50;;;1.17;;
21432;SDS011;18592;49.708;10.900;2023-08-31T03:09:58;1.90;;;1.25;;
21432;SDS011;18592;49.708;10.900;2023-08-31T03:11:58;1.40;;;1.30;;
21432;SDS011;18592;49.708;10.900;2023-08-31T03:13:58;1.27;;;1.13;;
21432;SDS011;18592;49.708;10.900;2023-08-31T03:15:59;1.20;;;1.10;;
21432;SDS011;18592;49.708;10.900;2023-08-31T03:18:01;1.30;;;1.20;;
21432;SDS011;18592;49.708;10.900;2023-08-31T03:20:02;1.17;;;1.08;;
21432;SDS011;18592;49.708;10.900;2023-08-31T03:22:03;1.85;;;1.17;;
21432;SDS011;18592;49.708;10.900;2023-08-31T03:24:04;1.67;;;1.30;;
21432;SDS011;18592;49.708;10.900;2023-08-31T03:26:07;1.83;;;1.15;;
21432;SDS011;18592;49.708;10.900;2023-08-31T03:28:18;1.60;;;1.30;;
21432;SDS011;18592;49.708;10.900;2023-08-31T03:30:20;2.17;;;1.30;;
21432;SDS011;18592;49.708;10.900;2023-08-31T03:32:20;1.05;;;0.95;;
21432;SDS011;18592;49.708;10.900;2023-08-31T03:34:22;2.50;;;1.50;;
21432;SDS011;18592;49.708;10.900;2023-08-31T03:36:23;1.73;;;1.35;;
21432;SDS011;18592;49.708;10.900;2023-08-31T03:38:29;1.63;;;1.20;;
21432;SDS011;18592;49.708;10.900;2023-08-31T03:40:30;2.10;;;1.42;;
21432;SDS011;18592;49.708;10.900;2023-08-31T03:42:31;1.70;;;1.20;;
21432;SDS011;18592;49.708;10.900;2023-08-31T03:44:31;1.17;;;1.08;;
21432;SDS011;18592;49.708;10.900;2023-08-31T03:46:35;1.17;;;1.00;;
21432;SDS011;18592;49.708;10.900;2023-08-31T03:48:35;2.17;;;1.40;;
21432;SDS011;18592;49.708;10.900;2023-08-31T03:50:37;1.58;;;1.48;;
21432;SDS011;18592;49.708;10.900;2023-08-31T03:52:39;3.08;;;1.38;;
21432;SDS011;18592;49.708;10.900;2023-08-31T03:54:45;1.88;;;1.17;;
21432;SDS011;18592;49.708;10.900;2023-08-31T03:56:46;2.25;;;1.48;;
21432;SDS011;18592;49.708;10.900;2023-08-31T03:58:49;2.40;;;1.40;;
21432;SDS011;18592;49.708;10.900;2023-08-31T04:00:49;3.25;;;1.42;;
21432;SDS011;18592;49.708;10.900;2023-08-31T04:02:52;1.50;;;1.17;;
21432;SDS011;18592;49.708;10.900;2023-08-31T04:04:57;2.10;;;1.38;;
21432;SDS011;18592;49.708;10.900;2023-08-31T04:06:58;2.33;;;1.60;;
21432;SDS011;18592;49.708;10.900;2023-08-31T04:08:58;2.80;;;1.40;;
21432;SDS011;18592;49.708;10.900;2023-08-31T04:10:59;2.17;;;1.50;;
21432;SDS011;18592;49.708;10.900;2023-08-31T04:13:02;2.00;;;1.52;;
21432;SDS011;18592;49.708;10.900;2023-08-31T04:15:03;1.65;;;1.50;;
21432;SDS011;18592;49.708;10.900;2023-08-31T04:17:17;2.00;;;1.40;;
21432;SDS011;18592;49.708;10.900;2023-08-31T04:19:18;2.58;;;1.50;;
21432;SDS011;18592;49.708;10.900;2023-08-31T04:21:18;2.65;;;1.40;;
21432;SDS011;18592;49.708;10.900;2023-08-31T04:23:19;2.28;;;1.50;;
21432;SDS011;18592;49.708;10.900;2023-08-31T04:25:20;1.63;;;1.42;;
21432;SDS011;18592;49.708;10.900;2023-08-31T04:27:26;2.47;;;1.25;;
21432;SDS011;18592;49.708;10.900;2023-08-31T04:29:27;2.47;;;1.50;;
21432;SDS011;18592;49.708;10.900;2023-08-31T04:31:28;2.83;;;1.50;;
21432;SDS011;18592;49.708;10.900;2023-08-31T04:33:28;1.88;;;1.58;;
21432;SDS011;18592;49.708;10.900;2023-08-31T04:35:32;1.95;;;1.35;;
21432;SDS011;18592;49.708;10.900;2023-08-31T04:37:33;1.65;;;1.50;;
21432;SDS011;18592;49.708;10.900;2023-08-31T04:39:33;1.60;;;1.33;;
21432;SDS011;18592;49.708;10.900;2023-08-31T04:41:34;1.50;;;1.35;;
21432;SDS011;18592;49.708;10.900;2023-08-31T04:43:34;1.83;;;1.35;;
21432;SDS011;18592;49.708;10.900;2023-08-31T04:45:34;1.75;;;1.40;;
21432;SDS011;18592;49.708;10.900;2023-08-31T04:47:35;2.42;;;1.60;;
21432;SDS011;18592;49.708;10.900;2023-08-31T04:49:35;1.80;;;1.38;;
21432;SDS011;18592;49.708;10.900;2023-08-31T04:51:38;2.30;;;1.50;;
21432;SDS011;18592;49.708;10.900;2023-08-31T04:53:39;2.03;;;1.67;;
21432;SDS011;18592;49.708;10.900;2023-08-31T04:55:39;2.17;;;1.50;;
21432;SDS011;18592;49.708;10.900;2023-08-31T04:57:40;2.30;;;1.60;;
21432;SDS011;18592;49.708;10.900;2023-08-31T04:59:40;2.05;;;1.35;;
21432;SDS011;18592;49.708;10.900;2023-08-31T05:01:41;2.03;;;1.48;;
21432;SDS011;18592;49.708;10.900;2023-08-31T05:03:41;2.25;;;1.40;;
21432;SDS011;18592;49.708;10.900;2023-08-31T05:05:42;2.97;;;1.80;;
21432;SDS011;18592;49.708;10.900;2023-08-31T05:07:42;1.50;;;1.40;;
21432;SDS011;18592;49.708;10.900;2023-08-31T05:09:43;1.55;;;1.38;;
21432;SDS011;18592;49.708;10.900;2023-08-31T05:11:45;2.78;;;1.40;;
21432;SDS011;18592;49.708;10.900;2023-08-31T05:13:50;1.60;;;1.50;;
21432;SDS011;18592;49.708;10.900;2023-08-31T05:15:50;3.65;;;1.42;;
21432;SDS011;18592;49.708;10.900;2023-08-31T05:17:50;2.33;;;1.77;;
21432;SDS011;18592;49.708;10.900;2023-08-31T05:30:32;3.25;;;1.90;;
21432;SDS011;18592;49.708;10.900;2023-08-31T05:32:35;2.83;;;1.50;;
21432;SDS011;18592;49.708;10.900;2023-08-31T05:35:00;2.70;;;1.83;;
21432;SDS011;18592;49.708;10.900;2023-08-31T05:37:12;1.70;;;1.38;;
21432;SDS011;18592;49.708;10.900;2023-08-31T05:39:15;2.45;;;1.50;;
21432;SDS011;18592;49.708;10.900;2023-08-31T05:41:29;3.08;;;1.90;;
21432;SDS011;18592;49.708;10.900;2023-08-31T05:43:38;2.50;;;1.60;;
21432;SDS011;18592;49.708;10.900;2023-08-31T05:45:40;3.60;;;1.90;;
21432;SDS011;18592;49.708;10.900;2023-08-31T05:47:48;2.33;;;1.88;;
21432;SDS011;18592;49.708;10.900;2023-08-31T05:49:50;2.30;;;1.77;;
21432;SDS011;18592;49.708;10.900;2023-08-31T05:51:51;3.53;;;2.05;;
21432;SDS011;18592;49.708;10.900;2023-08-31T05:53:56;3.92;;;2.25;;
21432;SDS011;18592;49.708;10.900;2023-08-31T05:55:57;2.67;;;2.33;;
21432;SDS011;18592;49.708;10.900;2023-08-31T05:58:03;2.78;;;2.00;;
21432;SDS011;18592;49.708;10.900;2023-08-31T06:00:06;4.90;;;2.20;;
21432;SDS011;18592;49.708;10.900;2023-08-31T06:02:13;2.63;;;1.77;;
21432;SDS011;18592;49.708;10.900;2023-08-31T06:04:14;3.30;;;2.15;;
21432;SDS011;18592;49.708;10.900;2023-08-31T06:06:22;2.60;;;2.10;;
21432;SDS011;18592;49.708;10.900;2023-08-31T06:08:23;5.30;;;2.60;;
21432;SDS011;18592;49.708;10.900;2023-08-31T06:10:25;3.60;;;2.35;;
21432;SDS011;18592;49.708;10.900;2023-08-31T06:12:36;3.08;;;2.10;;
21432;SDS011;18592;49.708;10.900;2023-08-31T06:14:38;3.20;;;2.17;;
21432;SDS011;18592;49.708;10.900;2023-08-31T06:16:47;3.72;;;2.42;;
21432;SDS011;18592;49.708;10.900;2023-08-31T06:18:49;2.72;;;2.35;;
21432;SDS011;18592;49.708;10.900;2023-08-31T06:31:34;3.03;;;2.50;;
21432;SDS011;18592;49.708;10.900;2023-08-31T06:33:36;2.60;;;2.05;;
21432;SDS011;18592;49.708;10.900;2023-08-31T06:35:38;3.47;;;2.22;;
21432;SDS011;18592;49.708;10.900;2023-08-31T06:37:41;3.00;;;2.28;;
21432;SDS011;18592;49.708;10.900;2023-08-31T06:39:42;3.70;;;2.58;;
21432;SDS011;18592;49.708;10.900;2023-08-31T06:41:42;3.15;;;2.10;;
21432;SDS011;18592;49.708;10.900;2023-08-31T06:44:04;5.32;;;2.30;;
21432;SDS011;18592;49.708;10.900;2023-08-31T06:46:05;3.33;;;2.40;;
21432;SDS011;18592;49.708;10.900;2023-08-31T06:48:06;3.03;;;2.35;;
21432;SDS011;18592;49.708;10.900;2023-08-31T06:50:06;3.47;;;2.42;;
21432;SDS011;18592;49.708;10.900;2023-08-31T06:52:07;4.20;;;2.38;;
21432;SDS011;18592;49.708;10.900;2023-08-31T06:54:08;3.88;;;2.45;;
21432;SDS011;18592;49.708;10.900;2023-08-31T06:56:08;4.22;;;2.38;;
21432;SDS011;18592;49.708;10.900;2023-08-31T06:58:10;3.10;;;2.08;;
21432;SDS011;18592;49.708;10.900;2023-08-31T07:00:10;3.25;;;2.33;;
21432;SDS011;18592;49.708;10.900;2023-08-31T07:02:18;2.95;;;2.38;;
21432;SDS011;18592;49.708;10.900;2023-08-31T07:04:22;4.13;;;2.53;;
21432;SDS011;18592;49.708;10.900;2023-08-31T07:06:23;4.60;;;2.50;;
21432;SDS011;18592;49.708;10.900;2023-08-31T07:08:23;2.22;;;2.03;;
21432;SDS011;18592;49.708;10.900;2023-08-31T07:10:25;3.00;;;2.28;;
21432;SDS011;18592;49.708;10.900;2023-08-31T07:12:25;3.15;;;2.10;;
21432;SDS011;18592;49.708;10.900;2023-08-31T07:14:25;3.17;;;2.20;;
21432;SDS011;18592;49.708;10.900;2023-08-31T07:16:27;3.08;;;2.00;;
21432;SDS011;18592;49.708;10.900;2023-08-31T07:18:27;2.60;;;2.00;;
21432;SDS011;18592;49.708;10.900;2023-08-31T07:20:28;3.08;;;2.38;;
21432;SDS011;18592;49.708;10.900;2023-08-31T07:22:28;7.00;;;2.20;;
21432;SDS011;18592;49.708;10.900;2023-08-31T07:24:28;3.63;;;2.13;;
21432;SDS011;18592;49.708;10.900;2023-08-31T07:26:30;2.97;;;2.15;;
21432;SDS011;18592;49.708;10.900;2023-08-31T07:28:30;4.63;;;2.50;;
21432;SDS011;18592;49.708;10.900;2023-08-31T07:30:31;2.75;;;2.35;;
21432;SDS011;18592;49.708;10.900;2023-08-31T07:32:33;4.00;;;2.50;;
21432;SDS011;18592;49.708;10.900;2023-08-31T07:34:33;3.53;;;2.22;;
21432;SDS011;18592;49.708;10.900;2023-08-31T07:36:34;3.28;;;2.15;;
21432;SDS011;18592;49.708;10.900;2023-08-31T07:38:34;2.95;;;2.00;;
21432;SDS011;18592;49.708;10.900;2023-08-31T07:40:34;3.70;;;1.98;;
21432;SDS011;18592;49.708;10.900;2023-08-31T07:42:35;2.58;;;2.05;;
21432;SDS011;18592;49.708;10.900;2023-08-31T07:44:35;2.67;;;2.00;;
21432;SDS011;18592;49.708;10.900;2023-08-31T07:46:36;2.15;;;1.80;;
21432;SDS011;18592;49.708;10.900;2023-08-31T07:48:45;2.10;;;1.83;;
21432;SDS011;18592;49.708;10.900;2023-08-31T07:50:56;2.92;;;2.10;;
21432;SDS011;18592;49.708;10.900;2023-08-31T07:52:57;2.50;;;2.30;;
21432;SDS011;18592;49.708;10.900;2023-08-31T07:54:58;3.72;;;2.03;;
21432;SDS011;18592;49.708;10.900;2023-08-31T07:56:58;2.17;;;1.60;;
21432;SDS011;18592;49.708;10.900;2023-08-31T07:59:05;2.50;;;2.00;;
21432;SDS011;18592;49.708;10.900;2023-08-31T08:01:06;3.25;;;1.80;;
21432;SDS011;18592;49.708;10.900;2023-08-31T08:03:07;3.15;;;1.60;;
21432;SDS011;18592;49.708;10.900;2023-08-31T08:05:07;1.60;;;1.40;;
21432;SDS011;18592;49.708;10.900;2023-08-31T08:07:08;4.45;;;1.95;;
21432;SDS011;18592;49.708;10.900;2023-08-31T08:09:08;2.58;;;1.90;;
21432;SDS011;18592;49.708;10.900;2023-08-31T08:11:10;1.85;;;1.45;;
21432;SDS011;18592;49.708;10.900;2023-08-31T08:13:11;2.40;;;1.55;;
21432;SDS011;18592;49.708;10.900;2023-08-31T08:15:12;2.53;;;1.60;;
21432;SDS011;18592;49.708;10.900;2023-08-31T08:17:13;3.95;;;1.70;;
21432;SDS011;18592;49.708;10.900;2023-08-31T08:19:20;3.50;;;1.90;;
21432;SDS011;18592;49.708;10.900;2023-08-31T08:21:22;2.03;;;1.52;;
21432;SDS011;18592;49.708;10.900;2023-08-31T08:23:22;2.03;;;1.48;;
21432;SDS011;18592;49.708;10.900;2023-08-31T08:25:23;3.10;;;1.77;;
21432;SDS011;18592;49.708;10.900;2023-08-31T08:27:24;3.33;;;1.60;;
21432;SDS011;18592;49.708;10.900;2023-08-31T08:29:31;2.78;;;1.95;;
21432;SDS011;18592;49.708;10.900;2023-08-31T08:31:31;2.90;;;1.77;;
21432;SDS011;18592;49.708;10.900;2023-08-31T08:33:35;3.83;;;1.80;;
21432;SDS011;18592;49.708;10.900;2023-08-31T08:35:39;2.75;;;1.85;;
21432;SDS011;18592;49.708;10.900;2023-08-31T08:37:45;1.90;;;1.70;;
21432;SDS011;18592;49.708;10.900;2023-08-31T08:39:49;2.85;;;1.80;;
21432;SDS011;18592;49.708;10.900;2023-08-31T08:41:50;3.70;;;1.85;;
21432;SDS011;18592;49.708;10.900;2023-08-31T08:43:53;3.55;;;1.60;;
21432;SDS011;18592;49.708;10.900;2023-08-31T08:45:54;4.13;;;1.58;;
21432;SDS011;18592;49.708;10.900;2023-08-31T08:48:00;2.50;;;1.40;;
21432;SDS011;18592;49.708;10.900;2023-08-31T08:50:01;1.98;;;1.38;;
21432;SDS011;18592;49.708;10.900;2023-08-31T08:52:02;2.13;;;1.40;;
21432;SDS011;18592;49.708;10.900;2023-08-31T08:54:03;2.15;;;1.40;;
21432;SDS011;18592;49.708;10.900;2023-08-31T08:56:04;1.65;;;1.40;;
21432;SDS011;18592;49.708;10.900;2023-08-31T08:58:05;3.40;;;1.40;;
21432;SDS011;18592;49.708;10.900;2023-08-31T09:00:07;2.10;;;1.55;;
21432;SDS011;18592;49.708;10.900;2023-08-31T09:02:11;2.63;;;1.67;;
21432;SDS011;18592;49.708;10.900;2023-08-31T09:04:12;2.15;;;1.63;;
21432;SDS011;18592;49.708;10.900;2023-08-31T09:06:13;2.80;;;1.70;;
21432;SDS011;18592;49.708;10.900;2023-08-31T09:08:14;2.35;;;1.45;;
21432;SDS011;18592;49.708;10.900;2023-08-31T09:10:15;3.83;;;1.98;;
21432;SDS011;18592;49.708;10.900;2023-08-31T09:12:16;1.83;;;1.50;;
21432;SDS011;18592;49.708;10.900;2023-08-31T09:14:17;2.25;;;1.40;;
21432;SDS011;18592;49.708;10.900;2023-08-31T09:16:26;3.55;;;1.60;;
21432;SDS011;18592;49.708;10.900;2023-08-31T09:18:39;1.85;;;1.40;;
21432;SDS011;18592;49.708;10.900;2023-08-31T09:20:43;2.97;;;1.50;;
21432;SDS011;18592;49.708;10.900;2023-08-31T09:22:45;2.40;;;1.63;;
21432;SDS011;18592;49.708;10.900;2023-08-31T09:24:46;2.92;;;1.60;;
21432;SDS011;18592;49.708;10.900;2023-08-31T09:26:47;2.17;;;1.60;;
21432;SDS011;18592;49.708;10.900;2023-08-31T09:29:00;2.75;;;1.48;;
21432;SDS011;18592;49.708;10.900;2023-08-31T09:31:06;4.07;;;1.58;;
21432;SDS011;18592;49.708;10.900;2023-08-31T09:33:09;3.08;;;1.65;;
21432;SDS011;18592;49.708;10.900;2023-08-31T09:35:17;2.85;;;1.30;;
21432;SDS011;18592;49.708;10.900;2023-08-31T09:37:30;4.03;;;1.73;;
21432;SDS011;18592;49.708;10.900;2023-08-31T09:39:35;1.92;;;1.38;;
21432;SDS011;18592;49.708;10.900;2023-08-31T09:41:51;1.40;;;1.20;;
21432;SDS011;18592;49.708;10.900;2023-08-31T09:43:55;2.35;;;1.70;;
21432;SDS011;18592;49.708;10.900;2023-08-31T09:45:55;2.15;;;1.60;;
21432;SDS011;18592;49.708;10.900;2023-08-31T09:47:59;3.05;;;1.60;;
21432;SDS011;18592;49.708;10.900;2023-08-31T09:50:01;1.92;;;1.50;;
21432;SDS011;18592;49.708;10.900;2023-08-31T09:52:03;1.77;;;1.30;;
21432;SDS011;18592;49.708;10.900;2023-08-31T09:54:06;2.00;;;1.60;;
21432;SDS011;18592;49.708;10.900;2023-08-31T09:56:13;2.22;;;1.60;;
21432;SDS011;18592;49.708;10.900;2023-08-31T09:58:21;2.13;;;1.40;;
21432;SDS011;18592;49.708;10.900;2023-08-31T10:00:24;1.92;;;1.52;;
21432;SDS011;18592;49.708;10.900;2023-08-31T10:02:35;2.28;;;1.42;;
21432;SDS011;18592;49.708;10.900;2023-08-31T10:04:36;2.65;;;1.50;;
21432;SDS011;18592;49.708;10.900;2023-08-31T10:06:40;1.73;;;1.63;;
21432;SDS011;18592;49.708;10.900;2023-08-31T10:08:41;2.03;;;1.67;;
21432;SDS011;18592;49.708;10.900;2023-08-31T10:10:53;2.85;;;1.52;;
21432;SDS011;18592;49.708;10.900;2023-08-31T10:12:56;1.67;;;1.40;;
21432;SDS011;18592;49.708;10.900;2023-08-31T10:14:59;2.75;;;1.65;;
21432;SDS011;18592;49.708;10.900;2023-08-31T10:17:00;2.92;;;1.55;;
21432;SDS011;18592;49.708;10.900;2023-08-31T10:19:03;2.30;;;1.60;;
21432;SDS011;18592;49.708;10.900;2023-08-31T10:21:04;1.75;;;1.40;;
21432;SDS011;18592;49.708;10.900;2023-08-31T10:23:05;2.35;;;1.70;;
21432;SDS011;18592;49.708;10.900;2023-08-31T10:25:07;2.78;;;1.67;;
21432;SDS011;18592;49.708;10.900;2023-08-31T10:27:18;2.15;;;1.63;;
21432;SDS011;18592;49.708;10.900;2023-08-31T10:29:29;1.75;;;1.35;;
21432;SDS011;18592;49.708;10.900;2023-08-31T10:31:31;3.13;;;1.60;;
21432;SDS011;18592;49.708;10.900;2023-08-31T10:33:42;2.35;;;1.70;;
21432;SDS011;18592;49.708;10.900;2023-08-31T10:35:56;2.30;;;1.60;;
21432;SDS011;18592;49.708;10.900;2023-08-31T10:38:15;2.28;;;1.67;;
21432;SDS011;18592;49.708;10.900;2023-08-31T10:40:30;2.25;;;1.55;;
21432;SDS011;18592;49.708;10.900;2023-08-31T10:42:32;2.10;;;1.63;;
21432;SDS011;18592;49.708;10.900;2023-08-31T10:44:32;2.85;;;1.48;;
21432;SDS011;18592;49.708;10.900;2023-08-31T10:46:36;1.67;;;1.38;;
21432;SDS011;18592;49.708;10.900;2023-08-31T10:48:53;2.00;;;1.70;;
21432;SDS011;18592;49.708;10.900;2023-08-31T10:50:55;2.28;;;1.50;;
21432;SDS011;18592;49.708;10.900;2023-08-31T10:53:07;1.83;;;1.27;;
21432;SDS011;18592;49.708;10.900;2023-08-31T10:55:14;1.70;;;1.42;;
21432;SDS011;18592;49.708;10.900;2023-08-31T10:57:16;2.13;;;1.45;;
21432;SDS011;18592;49.708;10.900;2023-08-31T10:59:26;2.22;;;1.50;;
21432;SDS011;18592;49.708;10.900;2023-08-31T11:01:57;1.85;;;1.63;;
21432;SDS011;18592;49.708;10.900;2023-08-31T11:14:43;2.45;;;1.70;;
21432;SDS011;18592;49.708;10.900;2023-08-31T11:16:43;1.98;;;1.73;;
21432;SDS011;18592;49.708;10.900;2023-08-31T11:18:44;2.88;;;1.52;;
21432;SDS011;18592;49.708;10.900;2023-08-31T11:20:45;3.10;;;1.55;;
21432;SDS011;18592;49.708;10.900;2023-08-31T11:22:48;1.40;;;1.30;;
21432;SDS011;18592;49.708;10.900;2023-08-31T11:24:53;2.28;;;1.50;;
21432;SDS011;18592;49.708;10.900;2023-08-31T11:27:05;2.20;;;1.60;;
21432;SDS011;18592;49.708;10.900;2023-08-31T11:29:08;1.77;;;1.40;;
21432;SDS011;18592;49.708;10.900;2023-08-31T11:31:09;2.25;;;1.40;;
21432;SDS011;18592;49.708;10.900;2023-08-31T11:33:10;2.20;;;1.40;;
21432;SDS011;18592;49.708;10.900;2023-08-31T11:35:11;2.40;;;1.63;;
21432;SDS011;18592;49.708;10.900;2023-08-31T11:37:12;1.70;;;1.33;;
21432;SDS011;18592;49.708;10.900;2023-08-31T11:39:17;3.47;;;1.67;;
21432;SDS011;18592;49.708;10.900;2023-08-31T11:41:20;2.70;;;1.48;;
21432;SDS011;18592;49.708;10.900;2023-08-31T11:43:21;3.35;;;1.50;;
21432;SDS011;18592;49.708;10.900;2023-08-31T11:45:23;2.70;;;1.50;;
21432;SDS011;18592;49.708;10.900;2023-08-31T11:47:24;2.00;;;1.30;;
21432;SDS011;18592;49.708;10.900;2023-08-31T11:49:27;2.35;;;1.55;;
21432;SDS011;18592;49.708;10.900;2023-08-31T11:51:28;2.95;;;1.60;;
21432;SDS011;18592;49.708;10.900;2023-08-31T11:53:29;2.50;;;1.70;;
21432;SDS011;18592;49.708;10.900;2023-08-31T11:55:34;3.25;;;1.48;;
21432;SDS011;18592;49.708;10.900;2023-08-31T11:57:34;2.17;;;1.60;;
21432;SDS011;18592;49.708;10.900;2023-08-31T11:59:40;2.42;;;1.48;;
21432;SDS011;18592;49.708;10.900;2023-08-31T12:01:41;2.70;;;1.52;;
21432;SDS011;18592;49.708;10.900;2023-08-31T12:03:43;1.73;;;1.20;;
21432;SDS011;18592;49.708;10.900;2023-08-31T12:05:48;1.30;;;1.20;;
21432;SDS011;18592;49.708;10.900;2023-08-31T12:07:53;2.22;;;1.40;;
21432;SDS011;18592;49.708;10.900;2023-08-31T12:10:05;2.22;;;1.60;;
21432;SDS011;18592;49.708;10.900;2023-08-31T12:12:22;2.33;;;1.40;;
21432;SDS011;18592;49.708;10.900;2023-08-31T12:14:24;2.08;;;1.50;;
21432;SDS011;18592;49.708;10.900;2023-08-31T12:16:31;1.80;;;1.30;;
21432;SDS011;18592;49.708;10.900;2023-08-31T12:18:36;3.50;;;1.50;;
21432;SDS011;18592;49.708;10.900;2023-08-31T12:20:47;1.85;;;1.40;;
21432;SDS011;18592;49.708;10.900;2023-08-31T12:22:51;2.80;;;1.52;;
21432;SDS011;18592;49.708;10.900;2023-08-31T12:24:51;1.73;;;1.40;;
21432;SDS011;18592;49.708;10.900;2023-08-31T12:26:51;4.13;;;1.40;;
21432;SDS011;18592;49.708;10.900;2023-08-31T12:28:55;3.13;;;1.50;;
21432;SDS011;18592;49.708;10.900;2023-08-31T12:30:56;2.33;;;1.40;;
21432;SDS011;18592;49.708;10.900;2023-08-31T12:33:20;3.35;;;1.60;;
21432;SDS011;18592;49.708;10.900;2023-08-31T12:35:21;2.53;;;1.30;;
21432;SDS011;18592;49.708;10.900;2023-08-31T12:37:21;1.50;;;1.40;;
21432;SDS011;18592;49.708;10.900;2023-08-31T12:39:22;3.05;;;1.45;;
21432;SDS011;18592;49.708;10.900;2023-08-31T12:41:22;2.85;;;1.50;;
21432;SDS011;18592;49.708;10.900;2023-08-31T12:43:25;2.50;;;1.63;;
21432;SDS011;18592;49.708;10.900;2023-08-31T12:45:34;2.17;;;1.38;;
21432;SDS011;18592;49.708;10.900;2023-08-31T12:47:35;1.85;;;1.40;;
21432;SDS011;18592;49.708;10.900;2023-08-31T12:49:35;2.45;;;1.30;;
21432;SDS011;18592;49.708;10.900;2023-08-31T12:51:50;2.90;;;1.50;;
21432;SDS011;18592;49.708;10.900;2023-08-31T12:53:51;2.03;;;1.38;;
21432;SDS011;18592;49.708;10.900;2023-08-31T12:55:53;2.85;;;1.55;;
21432;SDS011;18592;49.708;10.900;2023-08-31T12:57:55;1.40;;;1.00;;
21432;SDS011;18592;49.708;10.900;2023-08-31T12:59:56;2.05;;;1.42;;
21432;SDS011;18592;49.708;10.900;2023-08-31T13:01:56;2.47;;;1.30;;
21432;SDS011;18592;49.708;10.900;2023-08-31T13:03:57;1.65;;;1.10;;